Latest Weather Observations for Varanus Island

IDW60801

Issued at 3:03 pm WST Tuesday 16 August 2022 (issued every 10 minutes, with the page automatically refreshed every 10 minutes)

About weather observations | Map of weather stations | Latest weather observations for WA | Other Formats
Station Details ID: 200100 Name: VARANUS ISLAND Lat: -20.66 Lon: 115.58 Height: 24.0 m
Data from the previous 72 hours. | See also: Recent months at Varanus Island
Date/Time
WST
Temp
°C
App
Temp
°C
Dew
Point
°C
Rel
Hum
%
Delta-T
°C
Wind Press
QNH
hPa
Press
MSL
hPa
Rain since
9am
mm
Dir  Spd
km/h
Gust
km/h
Spd
kts
Gust
kts
16/03:00pm 26.1 28.7 22.6 81 2.4 NNE 13 19 7 10 1014.1 1014.0 0.2
16/02:30pm 25.7 27.5 22.6 83 2.1 NE 17 22 9 12 1014.1 1014.0 0.2
16/02:00pm 26.0 27.7 22.3 80 2.5 NE 17 20 9 11 1014.2 1014.1 0.2
16/01:30pm 26.0 27.7 22.3 80 2.5 NE 17 20 9 11 1014.3 1014.2 0.2
16/01:00pm 26.6 29.0 22.9 80 2.5 NNE 15 19 8 10 1014.6 1014.5 0.2
16/12:30pm 26.9 30.7 23.4 81 2.4 NNW 9 13 5 7 1014.8 1014.7 0.2
16/12:00pm 26.3 29.6 22.6 80 2.5 N 9 11 5 6 1015.0 1014.9 0.2
16/11:30am 26.4 29.8 22.7 80 2.5 NNW 9 11 5 6 1015.4 1015.3 0.2
16/11:00am 25.9 29.4 22.8 83 2.1 NNW 9 13 5 7 1015.7 1015.5 0.2
16/10:30am 25.9 29.9 23.8 88 1.4 NNW 9 11 5 6 1015.8 1015.6 0.2
16/10:00am 25.5 29.7 24.1 92 1.0 NNW 9 11 5 6 1016.0 1015.9 0.0
16/09:30am 24.2 28.7 24.0 99 0.1 N 7 9 4 5 1016.0 1015.9 0.0
16/09:00am 22.8 - - - - NE 7 9 4 5 1015.8 1015.6 0.2
16/08:30am 22.5 25.8 22.5 100 0.0 N 9 13 5 7 1015.6 1015.4 0.2
16/08:00am 23.0 - - - - NNW 9 11 5 6 1015.2 1015.1 0.2
16/07:30am 22.7 - - - - NNW 9 9 5 5 1015.1 1015.0 0.2
16/07:00am 21.8 - - - - N 7 9 4 5 1014.7 1014.6 0.2
16/06:30am 21.7 - - - - N 9 11 5 6 1014.5 1014.4 0.2
16/06:00am 21.8 - - - - NE 7 11 4 6 1014.4 1014.3 0.2
16/05:30am 21.9 - - - - NE 9 13 5 7 1014.3 1014.2 0.0
16/05:00am 21.9 - - - - NE 11 13 6 7 1014.0 1013.9 0.0
16/04:30am 22.1 - - - - NE 7 11 4 6 1014.1 1014.0 0.0
16/04:00am 22.1 - - - - N 7 11 4 6 1013.9 1013.8 0.0
16/03:30am 22.0 - - - - NNE 4 7 2 4 1014.0 1013.9 0.0
16/03:00am 22.0 - - - - NE 9 17 5 9 1014.1 1014.0 0.0
16/02:30am 22.2 - - - - NE 6 9 3 5 1014.2 1014.1 0.0
16/02:00am 22.0 - - - - NE 7 9 4 5 1014.3 1014.2 0.0
16/01:30am 22.1 - - - - NE 7 11 4 6 1014.5 1014.4 0.0
16/01:00am 22.1 25.2 22.1 100 0.0 N 9 11 5 6 1014.7 1014.6 0.0
16/12:30am 22.7 - - - - N 13 13 7 7 1014.8 1014.7 0.0
16/12:00am 22.5 24.9 22.3 99 0.1 NNW 13 15 7 8 1014.9 1014.8 0.0
 
Date/Time
WST
Temp
°C
App
Temp
°C
Dew
Point
°C
Rel
Hum
%
Delta-T
°C
Wind Press
QNH
hPa
Press
MSL
hPa
Rain since
9am
mm
Dir  Spd
km/h
Gust
km/h
Spd
kts
Gust
kts
15/11:30pm 22.4 24.3 22.1 98 0.2 NNW 15 15 8 8 1014.8 1014.7 0.0
15/11:00pm 22.5 24.4 22.0 97 0.3 N 15 17 8 9 1015.0 1014.9 0.0
15/10:30pm 22.9 24.6 22.4 97 0.3 N 17 20 9 11 1015.0 1014.9 0.0
15/10:00pm 22.7 24.6 22.0 96 0.5 N 15 19 8 10 1015.1 1015.0 0.0
15/09:30pm 23.1 25.5 22.3 95 0.5 N 13 19 7 10 1015.0 1014.9 0.0
15/09:00pm 23.2 25.7 22.4 95 0.5 N 13 19 7 10 1015.0 1014.9 0.0
15/08:30pm 22.6 25.1 21.8 95 0.5 N 11 15 6 8 1014.9 1014.8 0.0
15/08:00pm 22.8 25.0 21.8 94 0.7 N 13 20 7 11 1014.6 1014.5 0.0
15/07:30pm 23.2 24.7 22.0 93 0.8 N 17 22 9 12 1014.4 1014.3 0.0
15/07:00pm 23.2 25.2 21.6 91 1.1 N 13 19 7 10 1014.0 1013.9 0.0
15/06:30pm 23.8 26.3 21.7 88 1.4 N 11 15 6 8 1013.8 1013.7 0.0
15/06:00pm 23.9 24.5 21.4 86 1.6 N 20 24 11 13 1013.5 1013.4 0.0
15/05:30pm 24.5 26.0 21.2 82 2.2 N 15 19 8 10 1013.3 1013.2 0.0
15/05:00pm 25.1 26.9 21.2 79 2.6 N 13 22 7 12 1013.3 1013.2 0.0
15/04:30pm 25.1 25.9 20.6 76 2.9 N 17 22 9 12 1013.2 1013.1 0.0
15/04:00pm 25.1 25.4 20.4 75 3.1 NE 19 26 10 14 1013.2 1013.1 0.0
15/03:30pm 25.4 25.7 20.4 74 3.3 NE 19 24 10 13 1012.9 1012.8 0.0
15/03:00pm 25.4 25.0 20.2 73 3.4 NE 22 30 12 16 1012.9 1012.8 0.0
15/02:30pm 26.1 26.0 20.7 72 3.5 NE 22 30 12 16 1013.0 1012.9 0.0
15/02:00pm 25.9 24.6 20.7 73 3.4 NE 28 33 15 18 1013.0 1012.9 0.0
15/01:30pm 25.7 24.1 20.7 74 3.3 NE 30 35 16 19 1013.1 1013.0 0.0
15/01:00pm 25.8 25.8 21.7 78 2.7 NE 24 32 13 17 1013.3 1013.2 0.0
15/12:30pm 25.6 25.9 20.8 75 3.2 ENE 20 26 11 14 1013.5 1013.4 0.0
15/12:00pm 25.1 25.5 21.0 78 2.7 ENE 20 24 11 13 1013.9 1013.8 0.0
15/11:30am 25.3 26.4 21.2 78 2.7 ENE 17 20 9 11 1014.3 1014.2 0.0
15/11:00am 25.5 27.3 21.8 80 2.5 ENE 15 19 8 10 1014.7 1014.6 0.0
15/10:30am 24.7 26.8 22.4 87 1.5 E 15 17 8 9 1015.0 1014.9 0.0
15/10:00am 23.8 25.6 21.9 89 1.3 ENE 15 17 8 9 1015.2 1015.1 0.0
15/09:30am 23.5 24.9 21.8 90 1.1 ENE 17 20 9 11 1015.1 1015.0 0.0
15/09:00am 23.3 25.1 21.9 92 0.9 ENE 15 17 8 9 1015.1 1015.0 0.0
15/08:30am 22.8 24.7 22.0 95 0.5 ENE 15 17 8 9 1014.9 1014.8 0.0
15/08:00am 22.5 24.8 22.0 97 0.3 E 13 15 7 8 1014.9 1014.8 0.0
15/07:30am 22.3 24.8 21.8 97 0.3 E 11 13 6 7 1014.5 1014.4 0.0
15/07:00am 22.2 24.3 21.7 97 0.3 E 13 15 7 8 1014.5 1014.4 0.0
15/06:30am 22.2 24.7 21.7 97 0.3 E 11 15 6 8 1014.4 1014.3 0.0
15/06:00am 22.1 24.5 21.6 97 0.3 E 11 11 6 6 1014.3 1014.2 0.0
15/05:30am 22.1 24.5 21.6 97 0.3 ENE 11 13 6 7 1014.0 1013.9 0.0
15/05:00am 22.1 24.1 21.6 97 0.3 ENE 13 13 7 7 1014.0 1013.9 0.0
15/04:30am 22.2 25.1 21.7 97 0.3 E 9 11 5 6 1014.1 1014.0 0.0
15/04:00am 22.2 24.3 21.7 97 0.3 ENE 13 13 7 7 1014.1 1014.0 0.0
15/03:30am 22.2 24.2 21.5 96 0.5 ENE 13 13 7 7 1014.2 1014.1 0.0
15/03:00am 22.3 24.3 21.6 96 0.5 ENE 13 15 7 8 1014.4 1014.3 0.0
15/02:30am 22.4 24.5 21.7 96 0.5 ENE 13 15 7 8 1014.6 1014.5 0.0
15/02:00am 22.3 24.3 21.6 96 0.5 ENE 13 15 7 8 1014.7 1014.6 0.0
15/01:30am 22.2 23.8 21.5 96 0.5 NE 15 17 8 9 1014.7 1014.6 0.0
15/01:00am 22.1 23.7 21.4 96 0.5 NE 15 15 8 8 1014.7 1014.6 0.0
15/12:30am 22.1 24.0 21.3 95 0.5 ENE 13 15 7 8 1015.0 1014.9 0.0
15/12:00am 22.1 23.9 21.1 94 0.7 ENE 13 15 7 8 1015.1 1015.0 0.0
 
Date/Time
WST
Temp
°C
App
Temp
°C
Dew
Point
°C
Rel
Hum
%
Delta-T
°C
Wind Press
QNH
hPa
Press
MSL
hPa
Rain since
9am
mm
Dir  Spd
km/h
Gust
km/h
Spd
kts
Gust
kts
14/11:30pm 22.1 23.5 21.1 94 0.7 NE 15 17 8 9 1015.4 1015.3 0.0
14/11:00pm 22.1 23.8 20.9 93 0.8 ENE 13 17 7 9 1015.7 1015.5 0.0
14/10:30pm 22.2 23.8 20.8 92 0.9 ENE 13 15 7 8 1015.9 1015.8 0.0
14/10:00pm 22.2 24.2 20.7 91 1.0 ENE 11 15 6 8 1016.1 1016.0 0.0
14/09:30pm 22.4 24.4 20.7 90 1.1 NE 11 13 6 7 1015.9 1015.8 0.0
14/09:00pm 22.7 23.8 20.4 87 1.5 NE 15 17 8 9 1015.9 1015.8 0.0
14/08:30pm 22.7 23.6 20.0 85 1.7 NE 15 17 8 9 1015.8 1015.6 0.0
14/08:00pm 22.6 22.8 19.4 82 2.0 NE 17 19 9 10 1015.4 1015.3 0.0
14/07:30pm 22.7 23.2 19.3 81 2.2 NE 15 19 8 10 1015.1 1015.0 0.0
14/07:00pm 22.3 23.3 19.5 84 1.8 NE 13 15 7 8 1014.9 1014.8 0.0
14/06:30pm 22.2 23.5 19.4 84 1.8 ENE 11 13 6 7 1014.5 1014.4 0.0
14/06:00pm 22.6 23.9 19.4 82 2.0 ENE 11 11 6 6 1014.3 1014.2 0.0
14/05:30pm 23.8 25.4 19.1 75 3.0 ENE 9 11 5 6 1014.1 1014.0 0.0
14/05:00pm 24.5 25.8 18.4 69 3.9 ENE 9 11 5 6 1014.2 1014.1 0.0
14/04:30pm 24.5 25.8 16.2 60 5.1 E 4 9 2 5 1014.0 1013.9 0.0
14/04:00pm 25.0 26.5 17.5 63 4.7 ESE 6 9 3 5 1014.0 1013.9 0.0
14/03:30pm 24.6 26.2 18.3 68 4.0 SE 7 9 4 5 1013.8 1013.7 0.0
14/03:00pm 25.1 27.0 19.7 72 3.5 ESE 9 9 5 5 1013.9 1013.8 0.0
14/02:30pm 24.6 26.2 19.2 72 3.5 SSE 9 9 5 5 1014.1 1014.0 0.0
14/02:00pm 24.0 25.3 19.3 75 3.0 S 11 13 6 7 1014.4 1014.3 0.0
14/01:30pm 24.7 25.6 19.3 72 3.5 S 13 17 7 9 1014.6 1014.5 0.0
14/01:00pm 24.4 24.8 19.0 72 3.4 S 15 17 8 9 1014.8 1014.7 0.0
14/12:30pm 24.2 24.6 19.1 73 3.3 S 15 17 8 9 1015.1 1015.0 0.0
14/12:00pm 23.9 24.5 18.5 72 3.4 S 13 17 7 9 1015.4 1015.3 0.0
14/11:30am 23.8 24.5 18.9 74 3.1 SSE 13 17 7 9 1015.8 1015.6 0.0
14/11:00am 23.8 24.1 18.7 73 3.2 SSE 15 19 8 10 1016.0 1015.9 0.0
14/10:30am 23.3 23.1 18.6 75 3.0 SSE 17 20 9 11 1016.1 1016.0 0.0
14/10:00am 22.7 22.8 18.3 76 2.8 SSE 15 19 8 10 1016.3 1016.2 0.0
14/09:30am 22.9 23.1 19.3 80 2.3 SSE 17 20 9 11 1016.2 1016.1 0.0
14/09:00am 22.4 22.9 19.2 82 2.0 SSE 15 17 8 9 1016.1 1016.0 0.2
14/08:30am 22.0 23.0 19.4 85 1.7 SE 13 15 7 8 1015.9 1015.8 0.2
14/08:00am 21.6 22.7 19.7 89 1.2 SE 13 15 7 8 1015.7 1015.5 0.2
14/07:30am 21.2 22.7 19.8 92 0.9 SE 11 15 6 8 1015.6 1015.4 0.0
14/07:00am 21.1 21.9 19.9 93 0.8 SE 15 17 8 9 1015.2 1015.1 0.0
14/06:30am 21.1 22.3 19.9 93 0.8 SE 13 15 7 8 1014.8 1014.7 0.0
14/06:00am 21.1 22.6 19.7 92 0.9 SE 11 13 6 7 1014.5 1014.4 0.0
14/05:30am 21.0 22.1 19.7 92 0.8 ESE 13 17 7 9 1014.3 1014.2 0.0
14/05:00am 21.0 21.8 19.8 93 0.8 ESE 15 17 8 9 1014.0 1013.9 0.0
14/04:30am 21.1 22.0 20.1 94 0.6 ESE 15 17 8 9 1013.8 1013.7 0.0
14/04:00am 21.0 22.0 20.2 95 0.5 E 15 17 8 9 1013.8 1013.7 0.0
14/03:30am 21.0 22.0 20.2 95 0.5 ESE 15 17 8 9 1013.9 1013.8 0.0
14/03:00am 21.1 22.2 20.4 96 0.5 ESE 15 17 8 9 1014.0 1013.9 0.0
14/02:30am 21.1 22.2 20.4 96 0.5 SE 15 17 8 9 1014.2 1014.1 0.0
14/02:00am 21.2 22.7 20.5 96 0.5 SE 13 15 7 8 1014.4 1014.3 0.0
14/01:30am 21.2 22.7 20.5 96 0.5 SE 13 17 7 9 1014.5 1014.4 0.0
14/01:00am 21.2 23.0 20.4 95 0.5 SE 11 11 6 6 1014.6 1014.5 0.0
14/12:30am 21.5 23.7 20.5 94 0.6 SE 9 11 5 6 1014.9 1014.8 0.0
14/12:00am 21.5 23.4 20.5 94 0.6 SE 11 11 6 6 1015.0 1014.9 0.0
 
Date/Time
WST
Temp
°C
App
Temp
°C
Dew
Point
°C
Rel
Hum
%
Delta-T
°C
Wind Press
QNH
hPa
Press
MSL
hPa
Rain since
9am
mm
Dir  Spd
km/h
Gust
km/h
Spd
kts
Gust
kts
13/11:30pm 21.6 23.5 20.6 94 0.6 ESE 11 13 6 7 1015.0 1014.9 0.0
13/11:00pm 21.5 23.7 20.5 94 0.6 ESE 9 11 5 6 1015.0 1014.9 0.0
13/10:30pm 21.6 23.5 20.6 94 0.6 E 11 13 6 7 1015.2 1015.1 0.0
13/10:00pm 21.6 23.4 20.4 93 0.8 ENE 11 13 6 7 1014.9 1014.8 0.0
13/09:30pm 21.7 23.9 20.5 93 0.8 E 9 11 5 6 1014.9 1014.8 0.0
13/09:00pm 21.7 23.9 20.3 92 0.9 E 9 11 5 6 1014.8 1014.7 0.0
13/08:30pm 21.7 23.9 20.3 92 0.9 E 9 11 5 6 1014.6 1014.5 0.0
13/08:00pm 21.8 24.0 20.3 91 1.0 E 9 9 5 5 1014.4 1014.3 0.0
13/07:30pm 21.9 24.1 20.4 91 1.0 E 9 11 5 6 1014.1 1014.0 0.0
13/07:00pm 21.9 23.6 20.2 90 1.1 ENE 11 11 6 6 1013.9 1013.8 0.0
13/06:30pm 22.0 23.7 20.1 89 1.2 E 11 13 6 7 1013.7 1013.6 0.0
13/06:00pm 22.4 23.2 19.9 86 1.6 ENE 15 17 8 9 1013.6 1013.5 0.0
13/05:30pm 22.9 23.2 19.7 82 2.1 ENE 17 20 9 11 1013.5 1013.4 0.0
13/05:00pm 23.6 23.4 19.7 79 2.5 ENE 20 24 11 13 1013.3 1013.2 0.0
13/04:30pm 24.1 23.9 19.8 77 2.8 ENE 20 24 11 13 1013.4 1013.3 0.0
13/04:00pm 24.1 23.4 19.4 75 3.0 ENE 22 26 12 14 1013.4 1013.3 0.0
13/03:30pm 24.2 23.0 19.3 74 3.1 ENE 24 28 13 15 1013.4 1013.3 0.0

Other formats

Comma delimited format used in spreadsheet applications
http://www.bom.gov.au/fwo/IDW60801/IDW60801.95303.axf

JavaScript Object Notation format (JSON) in row-major order
http://www.bom.gov.au/fwo/IDW60801/IDW60801.95303.json

Data quality

Most of these data are generated automatically and are frequently updated. Quality checks on data are not normally performed. It is possible for incorrect values to appear. Refer to information at About Latest Weather Observations and please check the disclaimer before using these data.